createdAt,value
2023-05-01T00:00:48.857Z,13.2206
2023-05-01T00:01:51.788Z,13.3210
2023-05-01T00:02:54.838Z,13.2643
2023-05-01T00:03:58.026Z,13.2703
2023-05-01T00:05:00.796Z,13.2886
2023-05-01T00:06:03.612Z,13.2984
2023-05-01T00:07:06.522Z,13.3120
2023-05-01T00:08:09.463Z,13.3317
2023-05-01T00:09:12.435Z,13.3261
2023-05-01T00:10:15.430Z,13.3161
2023-05-01T00:11:18.349Z,13.3107
2023-05-01T00:12:21.228Z,13.2949
2023-05-01T00:13:24.210Z,13.3105
2023-05-01T00:14:27.107Z,13.2419
2023-05-01T00:15:30.096Z,13.2286
2023-05-01T00:16:33.156Z,13.1142
2023-05-01T00:17:36.039Z,13.1573
2023-05-01T00:18:38.942Z,13.2232
2023-05-01T00:19:41.845Z,13.2834
2023-05-01T00:20:44.823Z,13.2719
2023-05-01T00:21:47.743Z,13.2886
2023-05-01T00:22:50.699Z,13.2567
2023-05-01T00:23:53.609Z,13.2446
2023-05-01T00:24:56.573Z,13.2742
2023-05-01T00:25:59.622Z,13.2844
2023-05-01T00:27:02.459Z,13.2345
2023-05-01T00:28:05.418Z,13.2894
2023-05-01T00:29:08.338Z,13.2766
2023-05-01T00:30:11.294Z,13.2199
2023-05-01T00:31:14.248Z,13.2201
2023-05-01T00:32:17.316Z,13.2637
2023-05-01T00:33:20.110Z,13.1232
2023-05-01T00:34:23.066Z,13.2220
2023-05-01T00:35:26.008Z,13.1811
2023-05-01T00:36:28.948Z,13.1608
2023-05-01T00:37:31.972Z,13.1737
2023-05-01T00:38:34.926Z,13.2479
2023-05-01T00:39:37.848Z,13.1273
2023-05-01T00:40:40.924Z,13.1963
2023-05-01T00:41:43.749Z,13.2187
2023-05-01T00:42:46.696Z,13.2514
2023-05-01T00:43:49.675Z,13.1593
2023-05-01T00:44:52.587Z,13.2049
2023-05-01T00:45:55.539Z,13.1840
2023-05-01T00:46:58.489Z,13.1078
2023-05-01T00:48:01.469Z,13.1507
2023-05-01T00:49:04.350Z,13.0833
2023-05-01T00:50:07.289Z,13.0147
2023-05-01T00:51:10.244Z,13.0764
2023-05-01T00:52:13.209Z,13.0626
2023-05-01T00:53:16.140Z,13.0102
2023-05-01T00:54:19.070Z,13.0184
2023-05-01T00:55:22.020Z,12.9932
2023-05-01T00:56:24.975Z,12.9969
2023-05-01T00:57:27.913Z,13.0334
2023-05-01T00:58:30.851Z,13.0710
2023-05-01T00:59:33.780Z,12.9763
2023-05-01T01:00:36.712Z,12.9716
2023-05-01T01:01:39.676Z,12.9860
2023-05-01T01:02:42.635Z,13.0084
2023-05-01T01:03:45.596Z,12.9780
2023-05-01T01:04:48.626Z,12.8933
2023-05-01T01:05:51.479Z,12.8675
2023-05-01T01:06:54.389Z,12.9891
2023-05-01T01:07:57.318Z,12.9071
2023-05-01T01:09:00.264Z,12.8866
2023-05-01T01:10:03.201Z,12.9396
2023-05-01T01:11:06.134Z,12.9903
2023-05-01T01:12:09.078Z,12.8724
2023-05-01T01:13:12.025Z,12.8502
2023-05-01T01:14:15.097Z,12.8186
2023-05-01T01:15:17.945Z,12.8806
2023-05-01T01:16:20.921Z,12.8814
2023-05-01T01:17:23.813Z,12.9299
2023-05-01T01:18:26.793Z,12.9484
2023-05-01T01:19:29.698Z,12.8163
2023-05-01T01:20:32.632Z,12.8562
2023-05-01T01:21:35.572Z,12.7633
2023-05-01T01:22:38.503Z,12.7676
2023-05-01T01:23:41.444Z,12.7837
2023-05-01T01:24:44.390Z,12.6510
2023-05-01T01:25:47.346Z,12.7937
2023-05-01T01:26:50.335Z,12.8286
2023-05-01T01:27:53.217Z,12.7820
2023-05-01T01:28:56.146Z,12.8438
2023-05-01T01:29:59.130Z,12.8243
2023-05-01T01:31:02.111Z,12.7329
2023-05-01T01:32:04.998Z,12.7732
2023-05-01T01:33:07.983Z,12.7354
2023-05-01T01:34:10.845Z,12.7830
2023-05-01T01:35:13.831Z,12.7148
2023-05-01T01:36:16.756Z,12.6596
2023-05-01T01:37:19.701Z,12.6688
2023-05-01T01:38:22.692Z,12.7906
2023-05-01T01:39:25.728Z,12.8200
2023-05-01T01:40:28.578Z,12.7960
2023-05-01T01:41:31.459Z,12.7570
2023-05-01T01:42:34.404Z,12.7198
2023-05-01T01:43:37.326Z,12.6734
2023-05-01T01:44:40.270Z,12.6360
2023-05-01T01:45:43.279Z,12.6413
2023-05-01T01:46:46.185Z,12.7124
2023-05-01T01:47:49.174Z,12.6653
2023-05-01T01:48:52.047Z,12.6713
2023-05-01T01:49:55.172Z,12.6358
2023-05-01T01:50:57.916Z,12.6857
2023-05-01T01:52:00.872Z,12.7900
2023-05-01T01:53:03.831Z,12.7005
2023-05-01T01:54:06.770Z,12.7091
2023-05-01T01:55:09.858Z,12.7563
2023-05-01T01:56:12.780Z,12.7637
2023-05-01T01:57:15.569Z,12.6927
2023-05-01T01:58:18.632Z,12.7163
2023-05-01T01:59:21.503Z,12.7650
2023-05-01T02:00:24.401Z,12.7635
2023-05-01T02:01:27.362Z,12.7623
2023-05-01T02:02:30.359Z,12.7826
2023-05-01T02:03:33.405Z,12.7736
2023-05-01T02:04:36.208Z,12.7549
2023-05-01T02:05:39.102Z,12.7502
2023-05-01T02:06:42.084Z,12.7520
2023-05-01T02:07:44.984Z,12.7052
2023-05-01T02:08:48.007Z,12.7327
2023-05-01T02:09:50.891Z,12.7637
2023-05-01T02:10:53.860Z,12.7354
2023-05-01T02:11:56.821Z,12.7557
2023-05-01T02:12:59.730Z,12.7461
2023-05-01T02:14:02.832Z,12.6333
2023-05-01T02:15:05.618Z,12.6770
2023-05-01T02:16:08.579Z,12.6516
2023-05-01T02:17:11.480Z,12.6684
2023-05-01T02:18:14.453Z,12.6881
2023-05-01T02:19:17.390Z,12.6596
2023-05-01T02:20:20.448Z,12.6986
2023-05-01T02:21:23.263Z,12.6489
2023-05-01T02:22:26.202Z,12.6816
2023-05-01T02:23:29.175Z,12.6366
2023-05-01T02:24:32.095Z,12.5645
2023-05-01T02:25:35.063Z,12.5770
2023-05-01T02:26:37.992Z,12.6364
2023-05-01T02:27:40.917Z,12.5493
2023-05-01T02:28:43.859Z,12.4891
2023-05-01T02:29:46.814Z,12.5924
2023-05-01T02:30:49.744Z,12.5160
2023-05-01T02:31:52.745Z,12.4028
2023-05-01T02:32:55.654Z,12.4842
2023-05-01T02:33:58.596Z,12.5805
2023-05-01T02:35:01.517Z,12.5226
2023-05-01T02:36:04.494Z,12.4934
2023-05-01T02:37:07.404Z,12.4262
2023-05-01T02:38:10.354Z,12.4262
2023-05-01T02:39:13.277Z,12.4569
2023-05-01T02:40:16.230Z,12.4696
2023-05-01T02:41:19.204Z,12.3823
2023-05-01T02:42:22.150Z,12.3691
2023-05-01T02:43:25.061Z,12.4312
2023-05-01T02:44:28.169Z,12.4706
2023-05-01T02:45:30.951Z,12.4318
2023-05-01T02:46:33.947Z,12.4490
2023-05-01T02:47:36.848Z,12.3726
2023-05-01T02:48:39.769Z,12.4846
2023-05-01T02:49:42.710Z,12.3983
2023-05-01T02:50:45.656Z,12.3057
2023-05-01T02:51:48.611Z,12.3769
2023-05-01T02:52:51.618Z,12.4100
2023-05-01T02:53:54.487Z,12.3704
2023-05-01T02:54:57.419Z,12.3792
2023-05-01T02:56:00.360Z,12.4059
2023-05-01T02:57:03.324Z,12.3802
2023-05-01T02:58:06.278Z,12.2940
2023-05-01T02:59:09.201Z,12.3001
2023-05-01T03:00:12.131Z,12.1968
2023-05-01T03:01:15.137Z,12.2841
2023-05-01T03:02:18.011Z,12.3607
2023-05-01T03:03:21.018Z,12.3186
2023-05-01T03:04:23.962Z,12.2864
2023-05-01T03:05:26.914Z,12.2467
2023-05-01T03:06:29.826Z,12.3046
2023-05-01T03:07:32.737Z,12.3120
2023-05-01T03:08:35.687Z,12.3112
2023-05-01T03:09:38.636Z,12.3640
2023-05-01T03:10:41.552Z,12.3408
2023-05-01T03:11:44.501Z,12.4002
2023-05-01T03:12:47.481Z,12.3607
2023-05-01T03:13:50.390Z,12.2722
2023-05-01T03:14:53.324Z,12.2465
2023-05-01T03:15:56.332Z,12.2564
2023-05-01T03:16:59.288Z,12.2067
2023-05-01T03:18:02.214Z,12.2375
2023-05-01T03:19:05.093Z,12.2071
2023-05-01T03:20:08.051Z,12.2338
2023-05-01T03:21:10.979Z,12.2712
2023-05-01T03:22:13.926Z,12.3016
2023-05-01T03:23:16.878Z,12.3346
2023-05-01T03:24:19.808Z,12.2459
2023-05-01T03:25:22.741Z,12.2590
2023-05-01T03:26:25.707Z,12.1791
2023-05-01T03:27:28.676Z,12.2983
2023-05-01T03:28:31.640Z,12.3564
2023-05-01T03:29:34.522Z,12.2354
2023-05-01T03:30:37.474Z,12.1876
2023-05-01T03:31:40.440Z,12.0314
2023-05-01T03:32:43.403Z,12.0056
2023-05-01T03:33:46.302Z,12.1192
2023-05-01T03:34:49.237Z,12.0620
2023-05-01T03:35:52.191Z,11.9858
2023-05-01T03:36:55.141Z,11.9216
2023-05-01T03:37:58.078Z,12.1136
2023-05-01T03:39:01.030Z,12.0873
2023-05-01T03:40:03.922Z,12.1095
2023-05-01T03:41:06.893Z,12.1775
2023-05-01T03:42:09.817Z,12.1317
2023-05-01T03:43:12.765Z,12.2017
2023-05-01T03:44:15.703Z,12.2003
2023-05-01T03:45:18.660Z,12.1150
2023-05-01T03:46:21.682Z,12.0559
2023-05-01T03:47:24.574Z,12.0631
2023-05-01T03:48:27.455Z,12.1317
2023-05-01T03:49:30.418Z,12.0994
2023-05-01T03:50:33.401Z,12.0773
2023-05-01T03:51:36.283Z,12.1317
2023-05-01T03:52:39.221Z,12.1623
2023-05-01T03:53:42.209Z,12.1101
2023-05-01T03:54:45.125Z,12.1795
2023-05-01T03:55:48.042Z,12.1687
2023-05-01T03:56:50.979Z,12.1286
2023-05-01T03:57:53.926Z,12.1473
2023-05-01T03:58:56.892Z,12.0867
2023-05-01T03:59:59.808Z,12.0031
2023-05-01T04:01:02.749Z,12.0128
2023-05-01T04:02:05.777Z,12.0941
2023-05-01T04:03:08.737Z,12.1604
2023-05-01T04:04:11.619Z,12.0861
2023-05-01T04:05:14.586Z,11.9179
2023-05-01T04:06:17.602Z,11.9548
2023-05-01T04:07:20.622Z,11.8135
2023-05-01T04:08:23.354Z,11.8384
2023-05-01T04:09:26.307Z,11.8137
2023-05-01T04:10:29.242Z,11.9838
2023-05-01T04:11:32.165Z,11.9577
2023-05-01T04:12:35.104Z,12.0152
2023-05-01T04:13:38.049Z,12.0390
2023-05-01T04:14:41.004Z,12.0212
2023-05-01T04:15:44.130Z,12.0345
2023-05-01T04:16:46.884Z,11.9589
2023-05-01T04:17:49.853Z,11.9010
2023-05-01T04:18:52.841Z,12.0173
2023-05-01T04:19:55.920Z,12.0526
2023-05-01T04:20:58.675Z,11.9860
2023-05-01T04:22:01.742Z,11.9080
2023-05-01T04:23:04.525Z,11.9988
2023-05-01T04:24:07.634Z,11.9945
2023-05-01T04:25:10.445Z,11.9581
2023-05-01T04:26:13.358Z,11.9427
2023-05-01T04:27:16.306Z,11.9339
2023-05-01T04:28:19.262Z,11.9027
2023-05-01T04:29:22.173Z,11.8178
2023-05-01T04:30:25.121Z,11.9006
2023-05-01T04:31:28.111Z,11.9559
2023-05-01T04:32:31.080Z,11.9357
2023-05-01T04:33:33.941Z,11.9187
2023-05-01T04:34:36.893Z,11.9437
2023-05-01T04:35:39.875Z,11.9554
2023-05-01T04:36:42.780Z,11.9257
2023-05-01T04:37:45.710Z,11.9287
2023-05-01T04:38:48.780Z,11.8842
2023-05-01T04:39:51.639Z,11.8361
2023-05-01T04:40:54.541Z,11.9072
2023-05-01T04:41:57.502Z,11.9828
2023-05-01T04:43:00.427Z,11.8772
2023-05-01T04:44:03.375Z,11.9111
2023-05-01T04:45:06.330Z,11.9809
2023-05-01T04:46:09.329Z,11.9622
2023-05-01T04:47:12.650Z,11.9879
2023-05-01T04:48:15.213Z,11.8649
2023-05-01T04:49:18.199Z,11.8482
2023-05-01T04:50:21.083Z,11.8039
2023-05-01T04:51:24.040Z,11.8406
2023-05-01T04:52:26.952Z,11.9236
2023-05-01T04:53:30.037Z,11.6523
2023-05-01T04:54:32.986Z,11.5763
2023-05-01T04:55:35.925Z,11.6827
2023-05-01T04:56:38.883Z,11.7264
2023-05-01T04:57:41.712Z,11.6825
2023-05-01T04:58:44.610Z,11.9289
2023-05-01T04:59:47.595Z,11.9273
2023-05-01T05:00:50.497Z,11.8899
2023-05-01T05:01:53.481Z,11.8115
2023-05-01T05:02:56.478Z,11.8384
2023-05-01T05:03:59.467Z,11.8618
2023-05-01T05:05:02.276Z,11.8096
2023-05-01T05:06:05.291Z,11.7673
2023-05-01T05:07:08.154Z,11.7513
2023-05-01T05:08:11.099Z,11.7887
2023-05-01T05:09:14.042Z,11.7636
2023-05-01T05:10:16.983Z,11.6317
2023-05-01T05:11:19.905Z,11.6284
2023-05-01T05:12:22.957Z,11.5629
2023-05-01T05:13:25.852Z,11.6553
2023-05-01T05:14:28.745Z,11.7523
2023-05-01T05:15:31.685Z,11.5947
2023-05-01T05:16:34.679Z,11.6044
2023-05-01T05:17:37.657Z,11.6297
2023-05-01T05:18:40.512Z,11.7558
2023-05-01T05:19:43.451Z,11.7287
2023-05-01T05:20:46.411Z,11.6845
2023-05-01T05:21:49.318Z,11.6783
2023-05-01T05:22:52.283Z,11.7498
2023-05-01T05:23:55.203Z,11.5687
2023-05-01T05:24:58.190Z,11.6857
2023-05-01T05:26:01.114Z,11.6588
2023-05-01T05:27:04.073Z,11.6553
2023-05-01T05:28:07.058Z,11.7211
2023-05-01T05:29:09.964Z,11.8156
2023-05-01T05:30:12.890Z,11.7430
2023-05-01T05:31:15.834Z,11.7554
2023-05-01T05:32:18.876Z,11.7854
2023-05-01T05:33:21.726Z,11.7619
2023-05-01T05:34:24.666Z,11.6759
2023-05-01T05:35:27.617Z,11.8006
2023-05-01T05:36:30.537Z,11.6683
2023-05-01T05:37:33.481Z,11.7478
2023-05-01T05:38:36.437Z,11.8106
2023-05-01T05:39:39.390Z,11.8470
2023-05-01T05:40:42.316Z,11.8683
2023-05-01T05:41:45.276Z,11.8211
2023-05-01T05:42:48.204Z,11.8803
2023-05-01T05:43:51.168Z,11.8501
2023-05-01T05:44:54.108Z,11.8835
2023-05-01T05:45:57.080Z,11.8273
2023-05-01T05:46:59.987Z,11.8201
2023-05-01T05:48:03.043Z,11.8597
2023-05-01T05:49:05.863Z,11.9534
2023-05-01T05:50:08.843Z,11.8866
2023-05-01T05:51:11.770Z,11.8638
2023-05-01T05:52:14.716Z,11.9511
2023-05-01T05:53:17.665Z,11.9819
2023-05-01T05:54:20.609Z,11.9331
2023-05-01T05:55:23.545Z,11.9780
2023-05-01T05:56:26.503Z,12.0101
2023-05-01T05:57:29.439Z,11.9824
2023-05-01T05:58:32.379Z,12.0150
2023-05-01T05:59:35.337Z,12.0107
2023-05-01T06:00:38.263Z,12.0450
2023-05-01T06:01:41.221Z,12.0674
2023-05-01T06:02:44.268Z,12.0670
2023-05-01T06:03:47.199Z,12.1229
2023-05-01T06:04:50.103Z,12.1003
2023-05-01T06:05:56.518Z,12.1072
2023-05-01T06:06:56.081Z,12.1319
2023-05-01T06:07:58.896Z,12.0588
2023-05-01T06:09:02.070Z,12.0144
2023-05-01T06:10:04.788Z,12.1171
2023-05-01T06:11:07.849Z,12.1510
2023-05-01T06:12:10.683Z,12.1083
2023-05-01T06:13:14.697Z,12.0545
2023-05-01T06:14:16.548Z,12.0668
2023-05-01T06:15:19.511Z,12.2073
2023-05-01T06:16:22.478Z,12.2590
2023-05-01T06:17:25.408Z,12.2167
2023-05-01T06:18:28.343Z,12.2087
2023-05-01T06:19:31.292Z,12.3090
2023-05-01T06:20:34.209Z,12.2855
2023-05-01T06:21:37.166Z,12.3266
2023-05-01T06:22:40.143Z,12.3283
2023-05-01T06:23:43.055Z,12.3574
2023-05-01T06:24:46.056Z,12.2650
2023-05-01T06:25:48.938Z,12.3133
2023-05-01T06:26:51.919Z,12.4287
2023-05-01T06:27:54.831Z,12.4166
2023-05-01T06:28:57.755Z,12.4782
2023-05-01T06:30:00.742Z,12.4640
2023-05-01T06:31:03.841Z,12.4686
2023-05-01T06:32:06.619Z,12.5665
2023-05-01T06:33:09.548Z,12.5460
2023-05-01T06:34:12.486Z,12.5559
2023-05-01T06:35:15.406Z,12.6639
2023-05-01T06:36:18.360Z,12.5409
2023-05-01T06:37:21.309Z,12.5649
2023-05-01T06:38:26.887Z,12.6756
2023-05-01T06:39:27.202Z,12.6986
2023-05-01T06:40:30.263Z,12.6099
2023-05-01T06:41:33.106Z,12.6220
2023-05-01T06:42:36.180Z,12.6573
2023-05-01T06:43:38.954Z,12.6031
2023-05-01T06:44:42.036Z,12.5817
2023-05-01T06:45:44.831Z,12.7222
2023-05-01T06:46:47.802Z,12.7668
2023-05-01T06:47:50.775Z,12.7855
2023-05-01T06:48:53.664Z,12.8186
2023-05-01T06:49:56.878Z,12.7933
2023-05-01T06:50:59.918Z,12.8490
2023-05-01T06:52:02.495Z,12.8888
2023-05-01T06:53:05.429Z,12.8901
2023-05-01T06:54:08.373Z,12.9038
2023-05-01T06:55:11.602Z,12.9279
2023-05-01T06:56:14.263Z,12.8558
2023-05-01T06:57:17.266Z,12.8650
2023-05-01T06:58:23.924Z,12.9166
2023-05-01T06:59:23.078Z,12.9375
2023-05-01T07:00:26.054Z,12.8944
2023-05-01T07:01:28.989Z,12.9749
2023-05-01T07:02:31.988Z,13.0193
2023-05-01T07:03:34.954Z,12.9548
2023-05-01T07:04:37.743Z,12.9578
2023-05-01T07:05:40.698Z,13.0002
2023-05-01T07:06:43.704Z,12.9954
2023-05-01T07:07:57.808Z,12.9546
2023-05-01T07:08:49.571Z,13.0353
2023-05-01T07:09:52.502Z,13.0476
2023-05-01T07:10:55.391Z,13.0129
2023-05-01T07:11:58.331Z,13.1000
2023-05-01T07:13:01.296Z,13.1275
2023-05-01T07:14:04.225Z,13.1316
2023-05-01T07:15:07.143Z,13.0745
2023-05-01T07:16:10.179Z,13.1197
2023-05-01T07:17:13.069Z,13.1285
2023-05-01T07:18:16.003Z,13.1897
2023-05-01T07:19:18.929Z,13.1836
2023-05-01T07:20:21.901Z,13.1801
2023-05-01T07:21:24.789Z,13.1466
2023-05-01T07:22:27.735Z,13.1704
2023-05-01T07:23:30.710Z,13.1694
2023-05-01T07:24:33.614Z,13.1571
2023-05-01T07:25:36.606Z,13.1441
2023-05-01T07:26:39.576Z,13.1836
2023-05-01T07:27:42.445Z,13.0614
2023-05-01T07:28:45.519Z,13.1704
2023-05-01T07:29:48.353Z,13.1487
2023-05-01T07:30:51.342Z,13.0622
2023-05-01T07:31:54.295Z,13.1758
2023-05-01T07:32:57.211Z,13.1464
2023-05-01T07:34:00.097Z,13.1928
2023-05-01T07:35:03.072Z,13.1534
2023-05-01T07:36:05.975Z,13.1875
2023-05-01T07:37:08.936Z,13.1520
2023-05-01T07:38:11.832Z,13.1349
2023-05-01T07:39:14.841Z,13.0421
2023-05-01T07:40:17.963Z,13.1326
2023-05-01T07:41:20.665Z,13.1468
2023-05-01T07:42:23.610Z,13.1748
2023-05-01T07:43:26.559Z,13.0879
2023-05-01T07:44:29.614Z,13.1351
2023-05-01T07:45:32.470Z,13.0819
2023-05-01T07:46:35.430Z,13.0334
2023-05-01T07:47:38.422Z,13.0131
2023-05-01T07:48:41.225Z,12.9837
2023-05-01T07:49:44.201Z,13.0322
2023-05-01T07:50:47.178Z,13.1131
2023-05-01T07:51:50.120Z,12.9845
2023-05-01T07:52:53.014Z,13.0760
2023-05-01T07:53:55.972Z,13.0517
2023-05-01T07:54:58.908Z,13.0065
2023-05-01T07:56:01.895Z,13.1228
2023-05-01T07:57:04.800Z,13.0743
2023-05-01T07:58:07.817Z,12.9700
2023-05-01T07:59:10.692Z,13.0398
2023-05-01T08:00:13.654Z,13.0807
2023-05-01T08:01:16.608Z,13.1174
2023-05-01T08:02:19.625Z,12.9934
2023-05-01T08:03:22.741Z,13.0213
2023-05-01T08:04:25.490Z,13.1133
2023-05-01T08:05:28.518Z,13.0768
2023-05-01T08:06:31.428Z,13.0649
2023-05-01T08:07:34.253Z,13.0519
2023-05-01T08:08:37.256Z,13.0410
2023-05-01T08:09:40.165Z,13.0525
2023-05-01T08:10:43.116Z,13.0010
2023-05-01T08:11:46.179Z,13.0369
2023-05-01T08:12:48.997Z,13.0753
2023-05-01T08:13:51.983Z,13.0819
2023-05-01T08:14:54.891Z,13.0569
2023-05-01T08:15:57.909Z,13.0755
2023-05-01T08:17:00.802Z,13.0784
2023-05-01T08:18:03.817Z,13.0581
2023-05-01T08:19:06.698Z,12.9946
2023-05-01T08:20:09.645Z,13.0466
2023-05-01T08:21:12.623Z,13.0304
2023-05-01T08:22:15.541Z,13.0433
2023-05-01T08:23:18.655Z,13.0517
2023-05-01T08:24:21.426Z,13.0762
2023-05-01T08:25:24.386Z,13.1177
2023-05-01T08:26:27.326Z,13.0792
2023-05-01T08:27:30.290Z,13.0983
2023-05-01T08:28:33.391Z,12.8901
2023-05-01T08:29:36.186Z,13.0219
2023-05-01T08:30:39.214Z,13.1394
2023-05-01T08:31:42.096Z,13.1441
2023-05-01T08:32:45.068Z,13.1813
2023-05-01T08:33:47.961Z,13.1778
2023-05-01T08:34:50.946Z,13.2113
2023-05-01T08:35:53.866Z,13.2514
2023-05-01T08:36:56.813Z,13.2869
2023-05-01T08:37:59.749Z,13.3208
2023-05-01T08:39:02.694Z,13.3255
2023-05-01T08:40:05.660Z,13.3709
2023-05-01T08:41:08.596Z,13.3489
2023-05-01T08:42:11.539Z,13.3259
2023-05-01T08:43:14.481Z,13.3613
2023-05-01T08:44:17.429Z,13.3689
2023-05-01T08:45:20.398Z,13.3360
2023-05-01T08:46:23.405Z,13.4360
2023-05-01T08:47:26.282Z,13.4332
2023-05-01T08:48:29.205Z,13.4223
2023-05-01T08:49:32.285Z,13.4621
2023-05-01T08:50:35.148Z,13.3984
2023-05-01T08:51:38.075Z,13.4999
2023-05-01T08:52:41.012Z,13.4609
2023-05-01T08:53:44.018Z,13.4728
2023-05-01T08:54:46.998Z,13.5324
2023-05-01T08:55:49.933Z,13.5659
2023-05-01T08:56:52.871Z,13.5915
2023-05-01T08:57:55.840Z,13.5398
2023-05-01T08:58:58.767Z,13.5677
2023-05-01T09:00:01.733Z,13.6108
2023-05-01T09:01:04.673Z,13.5654
2023-05-01T09:02:07.738Z,13.5837
2023-05-01T09:03:10.630Z,13.5860
2023-05-01T09:04:13.705Z,13.6517
2023-05-01T09:05:16.483Z,13.5363
2023-05-01T09:06:19.561Z,13.5817
2023-05-01T09:07:22.363Z,13.4810
2023-05-01T09:08:25.283Z,13.6753
2023-05-01T09:09:28.231Z,13.6620
2023-05-01T09:10:32.935Z,13.6591
2023-05-01T09:11:34.100Z,13.5878
2023-05-01T09:12:37.068Z,13.5525
2023-05-01T09:13:40.053Z,13.6831
2023-05-01T09:14:42.939Z,13.7324
2023-05-01T09:15:45.964Z,13.7883
2023-05-01T09:16:48.905Z,13.8091
2023-05-01T09:17:52.060Z,13.8549
2023-05-01T09:18:54.687Z,13.8822
2023-05-01T09:19:57.880Z,13.7267
2023-05-01T09:21:00.566Z,13.8865
2023-05-01T09:22:03.510Z,13.8543
2023-05-01T09:23:06.569Z,13.8616
2023-05-01T09:24:09.505Z,13.9317
2023-05-01T09:25:12.361Z,13.9438
2023-05-01T09:26:15.294Z,13.8904
2023-05-01T09:27:18.219Z,13.8960
2023-05-01T09:28:21.208Z,13.8910
2023-05-01T09:29:24.188Z,13.8670
2023-05-01T09:30:27.022Z,13.9362
2023-05-01T09:31:30.013Z,13.8557
2023-05-01T09:32:32.905Z,13.8910
2023-05-01T09:33:35.880Z,13.9249
2023-05-01T09:34:38.792Z,13.9089
2023-05-01T09:35:41.721Z,13.9925
2023-05-01T09:36:44.730Z,13.9120
2023-05-01T09:37:48.115Z,13.9225
2023-05-01T09:38:50.551Z,13.8662
2023-05-01T09:39:53.514Z,13.9845
2023-05-01T09:40:56.624Z,13.9270
2023-05-01T09:41:59.385Z,13.8881
2023-05-01T09:43:02.308Z,13.9210
2023-05-01T09:44:05.280Z,13.8937
2023-05-01T09:45:08.200Z,13.8255
2023-05-01T09:46:11.192Z,13.9337
2023-05-01T09:47:14.122Z,13.9904
2023-05-01T09:48:17.012Z,13.9288
2023-05-01T09:49:19.957Z,14.0547
2023-05-01T09:50:22.937Z,14.0085
2023-05-01T09:51:25.835Z,13.9754
2023-05-01T09:52:28.801Z,14.1135
2023-05-01T09:53:31.707Z,13.8900
2023-05-01T09:54:34.661Z,13.6967
2023-05-01T09:55:37.659Z,13.9568
2023-05-01T09:56:40.555Z,13.9132
2023-05-01T09:57:43.477Z,13.7294
2023-05-01T09:58:46.423Z,13.8740
2023-05-01T09:59:49.505Z,14.0258
2023-05-01T10:00:52.361Z,13.9446
2023-05-01T10:01:55.365Z,13.8949
2023-05-01T10:02:58.787Z,13.9898
2023-05-01T10:04:01.232Z,14.0410
2023-05-01T10:05:04.088Z,13.9198
2023-05-01T10:06:07.158Z,13.9134
2023-05-01T10:07:09.972Z,13.8869
2023-05-01T10:08:12.900Z,14.0013
2023-05-01T10:09:15.846Z,13.9945
2023-05-01T10:10:18.848Z,13.9362
2023-05-01T10:11:21.738Z,13.7764
2023-05-01T10:12:24.695Z,13.6367
2023-05-01T10:13:27.675Z,14.0441
2023-05-01T10:14:30.592Z,13.9565
2023-05-01T10:15:33.562Z,13.9629
2023-05-01T10:16:36.578Z,14.1749
2023-05-01T10:17:39.508Z,14.2285
2023-05-01T10:18:42.398Z,14.1552
2023-05-01T10:19:45.331Z,14.1607
2023-05-01T10:20:48.318Z,14.4025
2023-05-01T10:21:51.217Z,14.5003
2023-05-01T10:22:54.372Z,14.5830
2023-05-01T10:23:57.120Z,14.6837
2023-05-01T10:25:00.069Z,14.6720
2023-05-01T10:26:04.032Z,14.6823
2023-05-01T10:27:05.991Z,14.7365
2023-05-01T10:28:08.931Z,14.7825
2023-05-01T10:29:11.867Z,14.8864
2023-05-01T10:30:14.808Z,14.9702
2023-05-01T10:31:17.812Z,15.0214
2023-05-01T10:32:20.696Z,15.1391
2023-05-01T10:33:23.860Z,15.1627
2023-05-01T10:34:28.452Z,15.2098
2023-05-01T10:35:29.579Z,15.3363
2023-05-01T10:36:32.515Z,15.1952
2023-05-01T10:37:35.429Z,15.2237
2023-05-01T10:38:38.410Z,15.3805
2023-05-01T10:39:41.354Z,15.3926
2023-05-01T10:40:44.317Z,15.4669
2023-05-01T10:41:47.242Z,15.4981
2023-05-01T10:42:50.207Z,15.5926
2023-05-01T10:43:53.116Z,15.5265
2023-05-01T10:44:56.283Z,15.6025
2023-05-01T10:45:59.076Z,15.7101
2023-05-01T10:47:01.958Z,15.6588
2023-05-01T10:48:04.952Z,15.7202
2023-05-01T10:49:07.824Z,15.6736
2023-05-01T10:50:10.762Z,15.7711
2023-05-01T10:51:13.699Z,15.7621
2023-05-01T10:52:16.731Z,15.7600
2023-05-01T10:53:19.603Z,15.8165
2023-05-01T10:54:22.521Z,15.6832
2023-05-01T10:55:25.480Z,15.8529
2023-05-01T10:56:28.462Z,15.8777
2023-05-01T10:57:31.350Z,15.9256
2023-05-01T10:58:34.271Z,15.8948
2023-05-01T10:59:37.290Z,15.8174
2023-05-01T11:00:40.140Z,15.8118
2023-05-01T11:01:43.324Z,15.8278
2023-05-01T11:02:46.082Z,15.8126
2023-05-01T11:03:48.975Z,15.8625
2023-05-01T11:04:52.031Z,15.7481
2023-05-01T11:05:54.966Z,15.7779
2023-05-01T11:06:57.829Z,15.6216
2023-05-01T11:08:00.881Z,15.6573
2023-05-01T11:09:03.677Z,15.7151
2023-05-01T11:10:06.612Z,15.6966
2023-05-01T11:11:09.545Z,15.6154
2023-05-01T11:12:12.500Z,15.6614
2023-05-01T11:13:15.419Z,15.5162
2023-05-01T11:14:18.357Z,15.5158
2023-05-01T11:15:21.297Z,15.3488
2023-05-01T11:16:24.285Z,15.4766
2023-05-01T11:17:27.198Z,15.5047
2023-05-01T11:18:30.144Z,15.2632
2023-05-01T11:19:33.130Z,15.2625
2023-05-01T11:20:36.039Z,15.4174
2023-05-01T11:21:38.975Z,15.3583
2023-05-01T11:22:41.899Z,15.3893
2023-05-01T11:23:44.818Z,15.2706
2023-05-01T11:24:47.744Z,15.1282
2023-05-01T11:25:50.771Z,15.3396
2023-05-01T11:26:53.701Z,15.2447
2023-05-01T11:27:56.716Z,15.2825
2023-05-01T11:28:59.504Z,15.3714
2023-05-01T11:30:02.472Z,15.3548
2023-05-01T11:31:05.411Z,15.1001
2023-05-01T11:32:08.451Z,15.1179
2023-05-01T11:33:11.378Z,15.1114
2023-05-01T11:34:14.202Z,15.0873
2023-05-01T11:35:17.177Z,15.1385
2023-05-01T11:36:20.112Z,15.1188
2023-05-01T11:37:23.117Z,14.9579
2023-05-01T11:38:25.973Z,15.0171
2023-05-01T11:39:28.899Z,14.9848
2023-05-01T11:40:31.860Z,14.8996
2023-05-01T11:41:34.791Z,14.9571
2023-05-01T11:42:37.788Z,14.9649
2023-05-01T11:43:40.672Z,15.0138
2023-05-01T11:44:43.609Z,14.9842
2023-05-01T11:45:46.588Z,14.8558
2023-05-01T11:46:49.545Z,14.8423
2023-05-01T11:47:52.466Z,14.8682
2023-05-01T11:48:55.365Z,14.8844
2023-05-01T11:49:58.331Z,14.8712
2023-05-01T11:51:01.257Z,14.8612
2023-05-01T11:52:04.213Z,14.7733
2023-05-01T11:53:07.128Z,14.8877
2023-05-01T11:54:10.079Z,14.8203
2023-05-01T11:55:13.044Z,14.7299
2023-05-01T11:56:25.399Z,14.7248
2023-05-01T11:57:18.903Z,14.7279
2023-05-01T11:58:21.981Z,14.6714
2023-05-01T11:59:24.760Z,14.7827
2023-05-01T12:00:27.740Z,14.7786
2023-05-01T12:01:30.674Z,14.8000
2023-05-01T12:02:33.728Z,14.8055
2023-05-01T12:03:36.560Z,14.7815
2023-05-01T12:04:39.561Z,14.7679
2023-05-01T12:05:42.487Z,14.7342
2023-05-01T12:06:45.587Z,14.7299
2023-05-01T12:07:48.286Z,14.7745
2023-05-01T12:08:51.274Z,14.6773
2023-05-01T12:09:54.337Z,14.6243
2023-05-01T12:10:57.189Z,14.7542
2023-05-01T12:12:00.097Z,14.7365
2023-05-01T12:13:03.012Z,14.7453
2023-05-01T12:14:05.930Z,14.6944
2023-05-01T12:15:08.906Z,14.6882
2023-05-01T12:16:11.840Z,14.7657
2023-05-01T12:17:14.805Z,14.7340
2023-05-01T12:18:18.076Z,14.6999
2023-05-01T12:19:21.773Z,14.6621
2023-05-01T12:20:23.609Z,14.6013
2023-05-01T12:21:26.564Z,14.6274
2023-05-01T12:22:29.613Z,14.6221
2023-05-01T12:23:32.493Z,14.6231
2023-05-01T12:24:35.401Z,14.5849
2023-05-01T12:25:38.547Z,14.6336
2023-05-01T12:26:41.333Z,14.5783
2023-05-01T12:27:44.280Z,14.6576
2023-05-01T12:28:47.182Z,14.6847
2023-05-01T12:29:50.146Z,14.7231
2023-05-01T12:30:53.078Z,14.6913
2023-05-01T12:31:56.098Z,14.7051
2023-05-01T12:32:58.999Z,14.7449
2023-05-01T12:34:02.022Z,14.7973
2023-05-01T12:35:04.907Z,14.8606
2023-05-01T12:36:07.804Z,14.8213
2023-05-01T12:37:10.779Z,14.8353
2023-05-01T12:38:13.725Z,14.7667
2023-05-01T12:39:16.639Z,14.8700
2023-05-01T12:40:19.596Z,14.8821
2023-05-01T12:41:22.509Z,14.8606